createdAt,value
2023-03-20T00:02:07.012Z,100.00
2023-03-20T00:04:34.847Z,100.00
2023-03-20T00:07:03.886Z,100.00
2023-03-20T00:09:31.515Z,100.00
2023-03-20T00:11:59.277Z,100.00
2023-03-20T00:14:26.647Z,100.00
2023-03-20T00:16:54.183Z,100.00
2023-03-20T00:19:26.411Z,100.00
2023-03-20T00:21:55.531Z,100.00
2023-03-20T00:24:23.666Z,100.00
2023-03-20T00:26:53.172Z,100.00
2023-03-20T00:29:30.914Z,100.00
2023-03-20T00:31:59.313Z,100.00
2023-03-20T00:34:32.691Z,100.00
2023-03-20T00:37:00.254Z,100.00
2023-03-20T00:39:30.455Z,100.00
2023-03-20T00:42:04.136Z,100.00
2023-03-20T00:44:42.843Z,100.00
2023-03-20T00:47:18.789Z,100.00
2023-03-20T00:49:48.138Z,100.00
2023-03-20T00:52:17.679Z,100.00
2023-03-20T00:54:44.928Z,100.00
2023-03-20T00:57:27.912Z,100.00
2023-03-20T01:00:17.266Z,100.00
2023-03-20T01:02:46.056Z,100.00
2023-03-20T01:05:13.823Z,100.00
2023-03-20T01:07:41.679Z,100.00
2023-03-20T01:10:11.697Z,100.00
2023-03-20T01:12:41.039Z,100.00
2023-03-20T01:15:23.763Z,100.00
2023-03-20T01:17:52.971Z,100.00
2023-03-20T01:20:24.358Z,100.00
2023-03-20T01:22:52.115Z,100.00
2023-03-20T01:25:19.342Z,100.00
2023-03-20T01:27:52.541Z,100.00
2023-03-20T01:30:26.815Z,100.00
2023-03-20T01:32:55.666Z,100.00
2023-03-20T01:35:25.962Z,100.00
2023-03-20T01:37:53.728Z,100.00
2023-03-20T01:40:57.325Z,100.00
2023-03-20T01:43:29.286Z,100.00
2023-03-20T01:46:11.597Z,100.00
2023-03-20T01:48:52.320Z,100.00
2023-03-20T01:51:26.049Z,100.00
2023-03-20T01:54:04.548Z,100.00
2023-03-20T01:56:37.632Z,100.00
2023-03-20T01:59:17.079Z,100.00
2023-03-20T02:01:45.519Z,100.00
2023-03-20T02:04:15.717Z,100.00
2023-03-20T02:07:07.339Z,100.00
2023-03-20T02:09:49.854Z,100.00
2023-03-20T02:12:23.475Z,100.00
2023-03-20T02:14:53.230Z,100.00
2023-03-20T02:17:42.688Z,100.00
2023-03-20T02:20:23.170Z,100.00
2023-03-20T02:23:05.628Z,100.00
2023-03-20T02:26:29.235Z,100.00
2023-03-20T02:29:18.553Z,100.00
2023-03-20T02:32:20.885Z,100.00
2023-03-20T02:35:18.494Z,100.00
2023-03-20T02:38:04.606Z,100.00
2023-03-20T02:40:46.052Z,100.00
2023-03-20T02:43:43.235Z,100.00
2023-03-20T02:46:19.809Z,100.00
2023-03-20T02:49:33.766Z,100.00
2023-03-20T02:52:09.513Z,100.00
2023-03-20T02:55:14.193Z,100.00
2023-03-20T02:57:50.836Z,100.00
2023-03-20T03:00:36.719Z,100.00
2023-03-20T03:03:31.166Z,100.00
2023-03-20T03:06:24.689Z,100.00
2023-03-20T03:09:17.616Z,100.00
2023-03-20T03:11:50.615Z,100.00
2023-03-20T03:14:29.379Z,100.00
2023-03-20T03:16:59.250Z,100.00
2023-03-20T03:19:29.543Z,100.00
2023-03-20T03:21:57.200Z,100.00
2023-03-20T03:24:40.233Z,100.00
2023-03-20T03:27:21.813Z,100.00
2023-03-20T03:29:56.663Z,100.00
2023-03-20T03:32:35.934Z,100.00
2023-03-20T03:35:07.052Z,100.00
2023-03-20T03:37:58.765Z,100.00
2023-03-20T03:40:41.554Z,100.00
2023-03-20T03:43:23.087Z,100.00
2023-03-20T03:45:58.097Z,100.00
2023-03-20T03:48:32.767Z,100.00
2023-03-20T03:51:05.863Z,100.00
2023-03-20T03:53:44.303Z,100.00
2023-03-20T03:56:14.330Z,100.00
2023-03-20T03:59:05.130Z,100.00
2023-03-20T04:01:35.829Z,100.00
2023-03-20T04:04:10.540Z,100.00
2023-03-20T04:06:37.863Z,100.00
2023-03-20T04:09:07.268Z,100.00
2023-03-20T04:11:35.830Z,100.00
2023-03-20T04:14:03.613Z,100.00
2023-03-20T04:16:31.557Z,100.00
2023-03-20T04:18:59.267Z,100.00
2023-03-20T04:21:26.691Z,100.00
2023-03-20T04:23:54.197Z,100.00
2023-03-20T04:26:23.559Z,100.00
2023-03-20T04:28:51.681Z,100.00
2023-03-20T04:31:43.148Z,100.00
2023-03-20T04:34:16.898Z,100.00
2023-03-20T04:37:08.507Z,100.00
2023-03-20T04:39:54.544Z,100.00
2023-03-20T04:42:21.951Z,100.00
2023-03-20T04:44:51.554Z,100.00
2023-03-20T04:47:18.927Z,100.00
2023-03-20T04:49:46.877Z,100.00
2023-03-20T04:52:14.110Z,100.00
2023-03-20T04:54:44.461Z,100.00
2023-03-20T04:57:12.436Z,100.00
2023-03-20T04:59:40.769Z,100.00
2023-03-20T05:02:08.295Z,100.00
2023-03-20T05:04:35.863Z,100.00
2023-03-20T05:07:03.347Z,100.00
2023-03-20T05:09:39.636Z,100.00
2023-03-20T05:12:09.776Z,100.00
2023-03-20T05:14:37.260Z,100.00
2023-03-20T05:17:24.998Z,100.00
2023-03-20T05:20:12.724Z,100.00
2023-03-20T05:23:06.233Z,100.00
2023-03-20T05:25:54.239Z,100.00
2023-03-20T05:28:53.908Z,100.00
2023-03-20T05:31:37.021Z,100.00
2023-03-20T05:34:18.796Z,100.00
2023-03-20T05:37:00.981Z,100.00
2023-03-20T05:39:56.644Z,100.00
2023-03-20T05:42:47.182Z,100.00
2023-03-20T05:45:27.048Z,100.00
2023-03-20T05:48:10.936Z,100.00
2023-03-20T05:50:49.136Z,100.00
2023-03-20T05:53:25.139Z,100.00
2023-03-20T05:56:12.321Z,100.00
2023-03-20T05:59:08.949Z,100.00
2023-03-20T06:01:47.719Z,100.00
2023-03-20T06:04:26.078Z,100.00
2023-03-20T06:07:11.781Z,99.37
2023-03-20T06:09:42.188Z,99.84
2023-03-20T06:12:12.809Z,98.91
2023-03-20T06:14:41.334Z,98.24
2023-03-20T06:17:09.610Z,96.99
2023-03-20T06:19:38.254Z,97.81
2023-03-20T06:22:06.612Z,97.85
2023-03-20T06:24:35.500Z,96.81
2023-03-20T06:27:02.804Z,97.24
2023-03-20T06:29:30.515Z,98.01
2023-03-20T06:32:09.008Z,97.07
2023-03-20T06:34:36.672Z,97.35
2023-03-20T06:37:04.024Z,97.09
2023-03-20T06:39:31.750Z,97.14
2023-03-20T06:41:59.103Z,97.05
2023-03-20T06:44:27.172Z,96.90
2023-03-20T06:47:14.630Z,96.57
2023-03-20T06:49:45.267Z,97.29
2023-03-20T06:52:18.026Z,96.97
2023-03-20T06:54:52.203Z,95.33
2023-03-20T06:57:20.179Z,94.43
2023-03-20T06:59:47.881Z,94.68
2023-03-20T07:02:16.398Z,94.73
2023-03-20T07:04:44.542Z,93.00
2023-03-20T07:07:11.800Z,91.41
2023-03-20T07:09:39.727Z,91.47
2023-03-20T07:12:14.544Z,90.44
2023-03-20T07:14:43.342Z,90.41
2023-03-20T07:17:15.125Z,90.94
2023-03-20T07:19:42.802Z,91.73
2023-03-20T07:22:20.910Z,91.64
2023-03-20T07:24:48.678Z,91.76
2023-03-20T07:27:17.979Z,91.98
2023-03-20T07:29:46.378Z,93.18
2023-03-20T07:32:17.181Z,92.86
2023-03-20T07:34:50.412Z,93.30
2023-03-20T07:37:19.935Z,92.48
2023-03-20T07:39:58.214Z,91.88
2023-03-20T07:42:31.463Z,91.66
2023-03-20T07:45:02.190Z,92.32
2023-03-20T07:47:30.614Z,93.64
2023-03-20T07:49:58.336Z,93.33
2023-03-20T07:52:25.842Z,92.45
2023-03-20T07:54:54.224Z,92.13
2023-03-20T07:57:21.618Z,92.07
2023-03-20T07:59:49.439Z,93.13
2023-03-20T08:02:17.794Z,92.47
2023-03-20T08:04:46.550Z,92.72
2023-03-20T08:07:13.999Z,94.22
2023-03-20T08:09:41.710Z,96.60
2023-03-20T08:12:09.069Z,95.93
2023-03-20T08:14:38.773Z,95.27
2023-03-20T08:17:15.056Z,96.08
2023-03-20T08:19:43.870Z,96.02
2023-03-20T08:22:11.094Z,94.62
2023-03-20T08:24:38.684Z,94.12
2023-03-20T08:27:05.918Z,90.38
2023-03-20T08:29:33.451Z,88.73
2023-03-20T08:32:00.961Z,85.48
2023-03-20T08:34:28.626Z,78.46
2023-03-20T08:36:56.080Z,74.08
2023-03-20T08:39:23.624Z,70.69
2023-03-20T08:41:51.243Z,68.65
2023-03-20T08:44:18.819Z,60.60
2023-03-20T08:46:46.741Z,51.78
2023-03-20T08:49:16.151Z,44.80
2023-03-20T08:51:43.375Z,42.75
2023-03-20T08:54:11.084Z,46.42
2023-03-20T08:56:38.438Z,44.95
2023-03-20T08:59:06.119Z,43.32
2023-03-20T09:01:48.287Z,41.17
2023-03-20T09:04:18.099Z,37.54
2023-03-20T09:06:45.545Z,36.56
2023-03-20T09:09:15.994Z,35.21
2023-03-20T09:11:43.367Z,35.63
2023-03-20T09:14:11.216Z,35.53
2023-03-20T09:16:38.583Z,33.70
2023-03-20T09:19:06.192Z,34.78
2023-03-20T09:21:36.517Z,35.85
2023-03-20T09:24:06.353Z,35.05
2023-03-20T09:26:33.863Z,37.47
2023-03-20T09:29:01.409Z,39.06
2023-03-20T09:31:28.782Z,36.84
2023-03-20T09:33:56.446Z,36.02
2023-03-20T09:36:23.763Z,33.76
2023-03-20T09:38:51.372Z,32.49
2023-03-20T09:41:22.609Z,33.23
2023-03-20T09:44:05.050Z,33.96
2023-03-20T09:46:49.416Z,42.64
2023-03-20T09:49:44.900Z,50.70
2023-03-20T09:52:27.458Z,54.55
2023-03-20T09:54:58.740Z,58.38
2023-03-20T09:57:30.403Z,59.05
2023-03-20T10:00:05.588Z,58.43
2023-03-20T10:03:01.256Z,59.66
2023-03-20T10:05:34.574Z,57.01
2023-03-20T10:08:04.812Z,50.84
2023-03-20T10:10:51.614Z,43.65
2023-03-20T10:13:30.559Z,40.53
2023-03-20T10:16:24.694Z,41.83
2023-03-20T10:19:21.841Z,42.12
2023-03-20T10:21:56.184Z,39.89
2023-03-20T10:24:32.292Z,39.89
2023-03-20T10:27:06.492Z,39.02
2023-03-20T10:30:03.606Z,40.80
2023-03-20T10:32:43.235Z,44.08
2023-03-20T10:35:37.795Z,51.40
2023-03-20T10:38:25.032Z,53.01
2023-03-20T10:40:54.109Z,56.10
2023-03-20T10:43:27.501Z,63.00
2023-03-20T10:46:04.533Z,68.78
2023-03-20T10:48:44.441Z,69.97
2023-03-20T10:51:16.516Z,68.95
2023-03-20T10:53:59.073Z,73.26
2023-03-20T10:56:47.881Z,70.25
2023-03-20T10:59:29.520Z,65.08
2023-03-20T11:01:56.958Z,63.53
2023-03-20T11:04:24.629Z,61.21
2023-03-20T11:07:03.434Z,60.15
2023-03-20T11:09:32.671Z,65.46
2023-03-20T11:12:02.356Z,66.20
2023-03-20T11:14:39.825Z,66.59
2023-03-20T11:17:07.506Z,67.49
2023-03-20T11:19:37.464Z,66.64
2023-03-20T11:22:31.359Z,67.04
2023-03-20T11:25:04.258Z,66.94
2023-03-20T11:27:35.978Z,71.20
2023-03-20T11:30:07.500Z,69.31
2023-03-20T11:32:39.739Z,68.03
2023-03-20T11:35:25.987Z,74.13
2023-03-20T11:37:55.902Z,74.36
2023-03-20T11:40:32.471Z,73.97
2023-03-20T11:43:04.260Z,74.68
2023-03-20T11:45:46.277Z,78.27
2023-03-20T11:48:20.125Z,79.33
2023-03-20T11:51:01.256Z,78.40
2023-03-20T11:53:36.027Z,75.93
2023-03-20T11:56:13.856Z,73.81
2023-03-20T11:59:03.011Z,76.42
2023-03-20T12:01:49.092Z,73.97
2023-03-20T12:04:43.044Z,75.63
2023-03-20T12:07:25.798Z,75.65
2023-03-20T12:10:04.844Z,75.95
2023-03-20T12:12:51.897Z,73.54
2023-03-20T12:15:38.948Z,73.80
2023-03-20T12:18:16.633Z,70.81
2023-03-20T12:20:54.139Z,67.37
2023-03-20T12:23:31.360Z,69.03
2023-03-20T12:26:11.435Z,69.02
2023-03-20T12:28:41.998Z,67.01
2023-03-20T12:31:36.064Z,71.08
2023-03-20T12:34:24.094Z,68.83
2023-03-20T12:36:57.661Z,65.58
2023-03-20T12:39:29.590Z,67.60
2023-03-20T12:42:35.647Z,64.45
2023-03-20T12:45:12.352Z,65.31
2023-03-20T12:48:01.367Z,65.08
2023-03-20T12:50:35.646Z,66.28
2023-03-20T12:53:33.711Z,68.51
2023-03-20T12:56:13.028Z,65.88
2023-03-20T12:58:59.171Z,65.81
2023-03-20T13:01:39.207Z,67.25
2023-03-20T13:04:38.112Z,68.32
2023-03-20T13:07:17.530Z,67.28
2023-03-20T13:10:05.820Z,66.56
2023-03-20T13:12:47.390Z,67.64
2023-03-20T13:15:31.797Z,72.25
2023-03-20T13:18:22.245Z,69.11
2023-03-20T13:20:56.197Z,67.25
2023-03-20T13:23:44.489Z,71.11
2023-03-20T13:26:30.736Z,74.29
2023-03-20T13:29:05.423Z,77.75
2023-03-20T13:31:57.629Z,78.71
2023-03-20T13:34:30.012Z,78.21
2023-03-20T13:37:25.757Z,82.97
2023-03-20T13:40:11.801Z,83.55
2023-03-20T13:42:45.954Z,82.81
2023-03-20T13:45:38.070Z,86.74
2023-03-20T13:48:20.320Z,85.31
2023-03-20T13:50:58.698Z,83.24
2023-03-20T13:53:46.233Z,83.81
2023-03-20T13:56:31.614Z,82.32
2023-03-20T13:59:43.692Z,81.45
2023-03-20T14:02:38.833Z,84.44
2023-03-20T14:05:22.982Z,83.38
2023-03-20T14:07:56.824Z,86.59
2023-03-20T14:10:24.316Z,87.31
2023-03-20T14:13:01.924Z,88.07
2023-03-20T14:15:37.052Z,86.84
2023-03-20T14:18:17.053Z,89.50
2023-03-20T14:20:56.806Z,89.25
2023-03-20T14:23:35.242Z,88.49
2023-03-20T14:26:26.386Z,88.77
2023-03-20T14:28:59.152Z,87.77
2023-03-20T14:31:37.800Z,91.97
2023-03-20T14:34:14.075Z,91.27
2023-03-20T14:37:03.697Z,94.45
2023-03-20T14:40:20.155Z,92.27
2023-03-20T14:42:57.919Z,92.56
2023-03-20T14:45:37.308Z,92.57
2023-03-20T14:48:27.115Z,91.64
2023-03-20T14:51:46.010Z,95.83
2023-03-20T14:54:25.984Z,96.12
2023-03-20T14:56:54.007Z,93.32
2023-03-20T14:59:23.462Z,91.42
2023-03-20T15:01:59.188Z,89.04
2023-03-20T15:04:39.403Z,89.03
2023-03-20T15:07:15.893Z,84.95
2023-03-20T15:09:49.070Z,82.90
2023-03-20T15:12:29.187Z,82.06
2023-03-20T15:15:03.344Z,81.73
2023-03-20T15:17:40.164Z,83.71
2023-03-20T15:20:17.911Z,83.33
2023-03-20T15:22:57.712Z,82.74
2023-03-20T15:25:49.288Z,84.95
2023-03-20T15:28:21.431Z,85.01
2023-03-20T15:30:49.457Z,84.58
2023-03-20T15:33:41.871Z,84.35
2023-03-20T15:36:15.733Z,84.95
2023-03-20T15:38:44.410Z,84.58
2023-03-20T15:41:34.419Z,85.26
2023-03-20T15:44:23.352Z,85.18
2023-03-20T15:47:00.564Z,87.12
2023-03-20T15:49:31.029Z,86.61
2023-03-20T15:52:07.230Z,86.49
2023-03-20T15:54:37.547Z,86.85
2023-03-20T15:57:05.554Z,87.23
2023-03-20T15:59:34.485Z,87.82
2023-03-20T16:02:02.433Z,88.20
2023-03-20T16:04:30.445Z,87.53
2023-03-20T16:07:00.543Z,88.25
2023-03-20T16:09:28.701Z,88.85
2023-03-20T16:11:57.604Z,89.23
2023-03-20T16:14:28.777Z,90.84
2023-03-20T16:16:59.090Z,92.02
2023-03-20T16:19:29.053Z,91.23
2023-03-20T16:22:11.754Z,94.60
2023-03-20T16:24:40.503Z,96.58
2023-03-20T16:27:09.956Z,97.23
2023-03-20T16:29:42.934Z,100.00
2023-03-20T16:32:34.277Z,100.00
2023-03-20T16:35:06.212Z,99.55
2023-03-20T16:37:42.974Z,100.00
2023-03-20T16:40:36.847Z,98.71
2023-03-20T16:43:14.548Z,96.62
2023-03-20T16:45:45.718Z,97.31
2023-03-20T16:48:13.072Z,95.97
2023-03-20T16:50:43.311Z,98.29
2023-03-20T16:53:12.969Z,99.08
2023-03-20T16:55:46.714Z,97.48
2023-03-20T16:58:21.134Z,96.56
2023-03-20T17:00:53.205Z,95.36
2023-03-20T17:03:27.754Z,95.25
2023-03-20T17:05:57.183Z,95.67
2023-03-20T17:08:48.287Z,97.95
2023-03-20T17:11:34.466Z,99.44
2023-03-20T17:14:03.618Z,97.86
2023-03-20T17:16:33.251Z,98.36
2023-03-20T17:19:04.487Z,98.46
2023-03-20T17:21:32.087Z,98.89
2023-03-20T17:23:59.523Z,97.98
2023-03-20T17:26:27.218Z,99.74
2023-03-20T17:28:55.325Z,100.00
2023-03-20T17:31:22.964Z,99.10
2023-03-20T17:33:50.582Z,99.45
2023-03-20T17:36:24.417Z,100.00
2023-03-20T17:38:51.739Z,100.00
2023-03-20T17:41:20.822Z,100.00
2023-03-20T17:43:48.431Z,100.00
2023-03-20T17:46:21.963Z,99.95
2023-03-20T17:48:50.438Z,98.75
2023-03-20T17:51:17.953Z,100.00
2023-03-20T17:53:45.375Z,98.88
2023-03-20T17:56:15.369Z,100.00
2023-03-20T17:58:45.837Z,100.00
2023-03-20T18:01:14.069Z,100.00
2023-03-20T18:03:41.862Z,99.24
2023-03-20T18:06:25.325Z,99.94
2023-03-20T18:08:53.039Z,100.00
2023-03-20T18:11:21.130Z,98.54
2023-03-20T18:13:48.456Z,98.87
2023-03-20T18:16:27.051Z,98.12
2023-03-20T18:18:54.973Z,96.73
2023-03-20T18:21:22.555Z,98.17
2023-03-20T18:23:49.926Z,98.88
2023-03-20T18:26:21.014Z,97.10
2023-03-20T18:28:49.468Z,99.37
2023-03-20T18:31:19.159Z,99.90
2023-03-20T18:33:51.680Z,100.00
2023-03-20T18:36:24.350Z,100.00
2023-03-20T18:38:52.555Z,99.99
2023-03-20T18:41:20.747Z,100.00
2023-03-20T18:43:48.470Z,98.66
2023-03-20T18:46:21.070Z,99.45
2023-03-20T18:48:50.040Z,99.45
2023-03-20T18:51:18.345Z,98.74
2023-03-20T18:53:46.264Z,100.00
2023-03-20T18:56:15.788Z,100.00
2023-03-20T18:58:43.507Z,100.00
2023-03-20T19:01:15.674Z,100.00
2023-03-20T19:03:44.242Z,99.89
2023-03-20T19:06:23.185Z,100.00
2023-03-20T19:08:51.423Z,99.19
2023-03-20T19:11:21.579Z,99.29
2023-03-20T19:13:52.531Z,100.00
2023-03-20T19:16:26.600Z,98.72
2023-03-20T19:18:56.255Z,99.24
2023-03-20T19:21:27.054Z,99.27
2023-03-20T19:24:03.442Z,97.70
2023-03-20T19:26:32.312Z,97.65
2023-03-20T19:29:01.272Z,99.81
2023-03-20T19:31:29.269Z,98.15
2023-03-20T19:33:56.943Z,99.01
2023-03-20T19:36:34.598Z,98.90
2023-03-20T19:39:04.233Z,99.42
2023-03-20T19:41:32.545Z,100.00
2023-03-20T19:44:01.471Z,99.28
2023-03-20T19:46:40.369Z,99.54
2023-03-20T19:49:20.416Z,99.33
2023-03-20T19:51:49.796Z,99.75
2023-03-20T19:54:17.410Z,99.88
2023-03-20T19:56:44.909Z,99.95
2023-03-20T19:59:16.005Z,98.81
2023-03-20T20:01:45.591Z,97.66
2023-03-20T20:04:13.433Z,97.59
2023-03-20T20:06:41.881Z,98.90
2023-03-20T20:09:09.337Z,100.00
2023-03-20T20:11:36.926Z,96.81
2023-03-20T20:14:08.473Z,97.93
2023-03-20T20:16:39.215Z,100.00
2023-03-20T20:19:06.800Z,100.00
2023-03-20T20:24:21.880Z,99.00
2023-03-20T20:27:00.076Z,100.00
2023-03-20T20:29:34.656Z,99.13
2023-03-20T20:32:02.321Z,99.37
2023-03-20T20:40:07.062Z,99.39
2023-03-20T20:42:35.034Z,99.36
2023-03-20T20:45:02.339Z,98.98
2023-03-20T20:47:30.001Z,99.03
2023-03-20T20:49:57.901Z,99.75
2023-03-20T20:52:25.448Z,99.00
2023-03-20T20:54:52.722Z,98.65
2023-03-20T20:57:20.375Z,100.00
2023-03-20T20:59:47.598Z,98.33
2023-03-20T21:02:17.542Z,98.79
2023-03-20T21:04:45.487Z,97.39
2023-03-20T21:07:13.804Z,98.55
2023-03-20T21:09:41.341Z,98.63
2023-03-20T21:12:10.727Z,98.99
2023-03-20T21:14:40.754Z,100.00
2023-03-20T21:17:09.932Z,100.00
2023-03-20T21:19:42.149Z,100.00
2023-03-20T21:22:13.390Z,100.00
2023-03-20T21:24:41.347Z,100.00
2023-03-20T21:27:13.958Z,100.00
2023-03-20T21:29:43.232Z,100.00
2023-03-20T21:32:12.918Z,100.00
2023-03-20T21:34:41.078Z,100.00
2023-03-20T21:38:13.195Z,100.00
2023-03-20T21:39:58.539Z,100.00
2023-03-20T21:42:26.431Z,100.00
2023-03-20T21:45:44.687Z,100.00
2023-03-20T21:50:55.524Z,100.00
2023-03-20T21:59:33.126Z,100.00
2023-03-20T22:02:01.580Z,100.00
2023-03-20T22:07:45.028Z,100.00
2023-03-20T22:30:40.747Z,100.00
2023-03-20T22:46:45.214Z,100.00
2023-03-20T22:49:09.622Z,100.00
2023-03-20T22:51:43.981Z,100.00
2023-03-20T22:54:19.832Z,100.00
2023-03-20T22:56:47.097Z,100.00
2023-03-20T22:59:14.594Z,100.00
2023-03-20T23:01:41.859Z,100.00
2023-03-20T23:04:09.453Z,100.00
2023-03-20T23:06:36.680Z,100.00
2023-03-20T23:09:14.537Z,100.00
2023-03-20T23:12:00.579Z,100.00
2023-03-20T23:14:46.490Z,100.00
2023-03-20T23:17:13.915Z,100.00
2023-03-20T23:19:49.189Z,100.00
2023-03-20T23:22:19.368Z,100.00
2023-03-20T23:24:47.013Z,100.00
2023-03-20T23:27:14.251Z,100.00
2023-03-20T23:29:41.825Z,100.00
2023-03-20T23:32:09.044Z,100.00
2023-03-20T23:34:37.509Z,100.00
2023-03-20T23:37:04.769Z,100.00
2023-03-20T23:39:32.276Z,100.00
2023-03-20T23:42:12.123Z,100.00
2023-03-20T23:44:53.541Z,100.00
2023-03-20T23:47:25.568Z,100.00
2023-03-20T23:49:53.279Z,100.00
2023-03-20T23:52:20.753Z,100.00
2023-03-20T23:54:48.321Z,100.00
2023-03-20T23:57:15.833Z,100.00
2023-03-20T23:59:43.825Z,100.00
